Olney, IL (62450)

1:23 PM CDT on August 22, 2014 (GMT -0500)
North East Olney, Il | Change Station
CLOSE
Current Station
Personal Weather Station
Location: Olney, IL
Elevation: 479 ft
Nearby Weather Stations
Active Advisory: Heat Advisory

Elev 479 ft 38.74 °N, 88.07 °W | Updated 15 minutes ago

Scattered Clouds
Scattered Clouds
85.6 °F
Feels Like 108 °F
N
0.0
Wind Variable Wind from East

Today
High -- | Low -- °F
--% Chance of Precip.
Yesterday
High -- | Low -- °F
Precip. -- in
6:12 AM 7:37 PM
Waning Crescent, 7% visible
Pressure 30.01 in
Visibility 10.0 miles
Clouds Scattered Clouds 2200 ft
Scattered Clouds 2800 ft
Heat Index 108 °F
Dew Point 85 °F
Humidity 98%
Rainfall 0.00 in
Snow Depth Not available.
UV 8 out of 12
Pollen 10.20 out of 12
Air Quality Not available.
Flu Activity Not available.
METAR KOLY 221756Z AUTO 00000KT 10SM SCT022 SCT028 29/24 A3001 RMK AO2

More Conditions Fewer Conditions

Pressure 30.01 in
Visibility 10.0 miles
Clouds Scattered Clouds 2200 ft
Scattered Clouds 2800 ft
Heat Index 108 °F
Dew Point 85 °F
Humidity 98%
Rainfall 0.00 in
Snow Depth Not available.
UV 8 out of 12
Pollen 10.20 out of 12
Air Quality Not available.
Flu Activity Not available.
METAR KOLY 221756Z AUTO 00000KT 10SM SCT022 SCT028 29/24 A3001 RMK AO2

More Conditions Fewer Conditions

10-Day Weather Forecast

Almanac

Astronomy

Aug. 22, 2014 Rise Set
Actual Time 6:12 AM CDT 7:37 PM CDT
Civil Twilight 5:44 AM CDT 8:04 PM CDT
Nautical Twilight 5:11 AM CDT 8:38 PM CDT
Astronomical Twilight 4:35 AM CDT 9:13 PM CDT
Moon 3:35 AM CDT 5:44 PM CDT
Length of Visible Light 14h 20m
Length of Day
13h 24m
Tomorrow will be 2m 19s shorter.
Waning Crescent, 7% of the Moon is Illuminated
Today
Waning Crescent
Aug 25
New
Sep 2
First Quarter
Sep 8
Full
Sep 15
Last Quarter

Today's Extremes

State Highs State Lows

Community

WunderPhotos

Upload Photos

1,746,215 photos uploaded!

WunderBlogs® & News

Nearby

Snow Depth

Station Depth Elevation
No new snow has been reported.

Earthquake Activity

City Distance Mag. Time & Date
No recent earthquake activity has been reported nearby.
Minimum magnitude displayed is 2.5.

Coastal Water Temperatures

Place Temperature
No Stations Reporting

Nearby Weather Stations